sensor_id;sensor_type;location;lat;lon;timestamp;P1;durP1;ratioP1;P2;durP2;ratioP2
27213;SDS011;14723;55.814;37.460;2023-05-19T00:02:53;2.30;;;1.90;;
27213;SDS011;14723;55.814;37.460;2023-05-19T00:09:04;3.30;;;1.60;;
27213;SDS011;14723;55.814;37.460;2023-05-19T00:12:11;3.05;;;1.52;;
27213;SDS011;14723;55.814;37.460;2023-05-19T00:15:17;2.25;;;1.52;;
27213;SDS011;14723;55.814;37.460;2023-05-19T00:18:29;2.97;;;1.67;;
27213;SDS011;14723;55.814;37.460;2023-05-19T00:24:40;3.08;;;1.52;;
27213;SDS011;14723;55.814;37.460;2023-05-19T00:27:45;2.60;;;1.55;;
27213;SDS011;14723;55.814;37.460;2023-05-19T00:30:51;3.22;;;1.27;;
27213;SDS011;14723;55.814;37.460;2023-05-19T00:33:59;2.03;;;1.30;;
27213;SDS011;14723;55.814;37.460;2023-05-19T00:37:05;2.05;;;1.45;;
27213;SDS011;14723;55.814;37.460;2023-05-19T00:40:10;3.60;;;1.58;;
27213;SDS011;14723;55.814;37.460;2023-05-19T00:43:15;4.15;;;1.30;;
27213;SDS011;14723;55.814;37.460;2023-05-19T00:46:21;2.53;;;1.30;;
27213;SDS011;14723;55.814;37.460;2023-05-19T00:49:29;3.45;;;1.25;;
27213;SDS011;14723;55.814;37.460;2023-05-19T00:52:35;1.30;;;1.20;;
27213;SDS011;14723;55.814;37.460;2023-05-19T00:55:40;1.85;;;1.20;;
27213;SDS011;14723;55.814;37.460;2023-05-19T00:58:46;1.20;;;1.10;;
27213;SDS011;14723;55.814;37.460;2023-05-19T01:01:52;2.60;;;1.05;;
27213;SDS011;14723;55.814;37.460;2023-05-19T01:05:00;3.83;;;1.20;;
27213;SDS011;14723;55.814;37.460;2023-05-19T01:08:08;1.63;;;0.75;;
27213;SDS011;14723;55.814;37.460;2023-05-19T01:11:13;0.90;;;0.70;;
27213;SDS011;14723;55.814;37.460;2023-05-19T01:14:19;0.93;;;0.77;;
27213;SDS011;14723;55.814;37.460;2023-05-19T01:17:25;2.95;;;0.70;;
27213;SDS011;14723;55.814;37.460;2023-05-19T01:20:40;1.20;;;0.90;;
27213;SDS011;14723;55.814;37.460;2023-05-19T01:23:49;0.73;;;0.70;;
27213;SDS011;14723;55.814;37.460;2023-05-19T01:27:04;2.80;;;1.02;;
27213;SDS011;14723;55.814;37.460;2023-05-19T01:30:30;1.88;;;1.70;;
27213;SDS011;14723;55.814;37.460;2023-05-19T01:33:39;3.97;;;1.80;;
27213;SDS011;14723;55.814;37.460;2023-05-19T01:36:45;4.43;;;2.40;;
27213;SDS011;14723;55.814;37.460;2023-05-19T01:39:51;4.72;;;2.50;;
27213;SDS011;14723;55.814;37.460;2023-05-19T01:42:58;3.72;;;2.30;;
27213;SDS011;14723;55.814;37.460;2023-05-19T01:46:08;5.43;;;3.10;;
27213;SDS011;14723;55.814;37.460;2023-05-19T01:49:14;3.88;;;2.78;;
27213;SDS011;14723;55.814;37.460;2023-05-19T01:52:20;4.60;;;3.28;;
27213;SDS011;14723;55.814;37.460;2023-05-19T01:55:25;5.22;;;3.65;;
27213;SDS011;14723;55.814;37.460;2023-05-19T01:58:37;5.68;;;3.47;;
27213;SDS011;14723;55.814;37.460;2023-05-19T02:01:50;6.20;;;3.40;;
27213;SDS011;14723;55.814;37.460;2023-05-19T02:04:56;4.53;;;3.30;;
27213;SDS011;14723;55.814;37.460;2023-05-19T02:08:05;13.50;;;3.17;;
27213;SDS011;14723;55.814;37.460;2023-05-19T02:11:17;5.13;;;3.22;;
27213;SDS011;14723;55.814;37.460;2023-05-19T02:14:24;3.80;;;2.85;;
27213;SDS011;14723;55.814;37.460;2023-05-19T02:17:37;7.85;;;3.33;;
27213;SDS011;14723;55.814;37.460;2023-05-19T02:21:09;5.68;;;2.78;;
27213;SDS011;14723;55.814;37.460;2023-05-19T02:24:14;3.85;;;3.00;;
27213;SDS011;14723;55.814;37.460;2023-05-19T02:27:21;7.25;;;3.22;;
27213;SDS011;14723;55.814;37.460;2023-05-19T02:30:27;6.55;;;3.50;;
27213;SDS011;14723;55.814;37.460;2023-05-19T02:33:38;3.92;;;2.90;;
27213;SDS011;14723;55.814;37.460;2023-05-19T02:36:44;5.15;;;3.50;;
27213;SDS011;14723;55.814;37.460;2023-05-19T02:39:51;3.58;;;3.05;;
27213;SDS011;14723;55.814;37.460;2023-05-19T02:42:57;4.43;;;3.15;;
27213;SDS011;14723;55.814;37.460;2023-05-19T02:46:02;7.07;;;3.67;;
27213;SDS011;14723;55.814;37.460;2023-05-19T02:49:12;6.50;;;3.13;;
27213;SDS011;14723;55.814;37.460;2023-05-19T02:52:18;4.25;;;3.40;;
27213;SDS011;14723;55.814;37.460;2023-05-19T02:55:23;5.85;;;3.30;;
27213;SDS011;14723;55.814;37.460;2023-05-19T02:58:29;5.28;;;2.85;;
27213;SDS011;14723;55.814;37.460;2023-05-19T03:01:34;3.95;;;2.88;;
27213;SDS011;14723;55.814;37.460;2023-05-19T03:04:44;6.68;;;3.53;;
27213;SDS011;14723;55.814;37.460;2023-05-19T03:07:49;5.93;;;3.42;;
27213;SDS011;14723;55.814;37.460;2023-05-19T03:10:55;5.07;;;3.38;;
27213;SDS011;14723;55.814;37.460;2023-05-19T03:14:00;6.55;;;3.72;;
27213;SDS011;14723;55.814;37.460;2023-05-19T03:17:06;4.68;;;3.70;;
27213;SDS011;14723;55.814;37.460;2023-05-19T03:20:14;4.15;;;3.30;;
27213;SDS011;14723;55.814;37.460;2023-05-19T03:23:20;5.95;;;3.65;;
27213;SDS011;14723;55.814;37.460;2023-05-19T03:26:26;7.15;;;4.00;;
27213;SDS011;14723;55.814;37.460;2023-05-19T03:29:31;4.85;;;3.92;;
27213;SDS011;14723;55.814;37.460;2023-05-19T03:32:37;6.78;;;4.10;;
27213;SDS011;14723;55.814;37.460;2023-05-19T03:35:45;6.45;;;4.07;;
27213;SDS011;14723;55.814;37.460;2023-05-19T03:41:57;4.85;;;3.85;;
27213;SDS011;14723;55.814;37.460;2023-05-19T03:45:02;6.05;;;4.22;;
27213;SDS011;14723;55.814;37.460;2023-05-19T03:48:08;6.53;;;4.88;;
27213;SDS011;14723;55.814;37.460;2023-05-19T03:51:42;10.48;;;5.25;;
27213;SDS011;14723;55.814;37.460;2023-05-19T03:55:11;5.40;;;3.85;;
27213;SDS011;14723;55.814;37.460;2023-05-19T03:58:17;6.50;;;4.43;;
27213;SDS011;14723;55.814;37.460;2023-05-19T04:01:22;9.63;;;5.28;;
27213;SDS011;14723;55.814;37.460;2023-05-19T04:04:28;5.65;;;4.45;;
27213;SDS011;14723;55.814;37.460;2023-05-19T04:07:36;5.85;;;4.50;;
27213;SDS011;14723;55.814;37.460;2023-05-19T04:10:42;7.18;;;4.32;;
27213;SDS011;14723;55.814;37.460;2023-05-19T04:13:48;10.75;;;4.72;;
27213;SDS011;14723;55.814;37.460;2023-05-19T04:16:54;7.53;;;4.78;;
27213;SDS011;14723;55.814;37.460;2023-05-19T04:20:01;8.10;;;5.53;;
27213;SDS011;14723;55.814;37.460;2023-05-19T04:23:10;10.02;;;5.07;;
27213;SDS011;14723;55.814;37.460;2023-05-19T04:26:15;8.43;;;5.20;;
27213;SDS011;14723;55.814;37.460;2023-05-19T04:29:24;8.90;;;5.25;;
27213;SDS011;14723;55.814;37.460;2023-05-19T04:32:30;7.70;;;4.47;;
27213;SDS011;14723;55.814;37.460;2023-05-19T04:35:36;7.15;;;4.60;;
27213;SDS011;14723;55.814;37.460;2023-05-19T04:38:47;7.07;;;5.43;;
27213;SDS011;14723;55.814;37.460;2023-05-19T04:41:59;9.70;;;5.95;;
27213;SDS011;14723;55.814;37.460;2023-05-19T04:45:07;8.75;;;5.82;;
27213;SDS011;14723;55.814;37.460;2023-05-19T04:48:16;9.68;;;5.72;;
27213;SDS011;14723;55.814;37.460;2023-05-19T04:51:22;8.93;;;5.88;;
27213;SDS011;14723;55.814;37.460;2023-05-19T04:54:36;8.95;;;5.72;;
27213;SDS011;14723;55.814;37.460;2023-05-19T04:57:46;7.28;;;5.60;;
27213;SDS011;14723;55.814;37.460;2023-05-19T05:00:53;8.73;;;5.80;;
27213;SDS011;14723;55.814;37.460;2023-05-19T05:03:59;8.35;;;6.00;;
27213;SDS011;14723;55.814;37.460;2023-05-19T05:07:05;10.57;;;6.28;;
27213;SDS011;14723;55.814;37.460;2023-05-19T05:10:14;8.95;;;5.65;;
27213;SDS011;14723;55.814;37.460;2023-05-19T05:13:21;8.90;;;6.43;;
27213;SDS011;14723;55.814;37.460;2023-05-19T05:16:27;9.85;;;6.45;;
27213;SDS011;14723;55.814;37.460;2023-05-19T05:19:33;8.43;;;6.35;;
27213;SDS011;14723;55.814;37.460;2023-05-19T05:22:40;10.77;;;7.20;;
27213;SDS011;14723;55.814;37.460;2023-05-19T05:25:49;10.15;;;6.65;;
27213;SDS011;14723;55.814;37.460;2023-05-19T05:28:56;11.48;;;7.22;;
27213;SDS011;14723;55.814;37.460;2023-05-19T05:32:02;10.65;;;7.88;;
27213;SDS011;14723;55.814;37.460;2023-05-19T05:35:09;11.07;;;7.63;;
27213;SDS011;14723;55.814;37.460;2023-05-19T05:38:15;11.30;;;7.78;;
27213;SDS011;14723;55.814;37.460;2023-05-19T05:41:24;12.52;;;7.93;;
27213;SDS011;14723;55.814;37.460;2023-05-19T05:44:30;12.38;;;8.27;;
27213;SDS011;14723;55.814;37.460;2023-05-19T05:47:39;13.45;;;8.43;;
27213;SDS011;14723;55.814;37.460;2023-05-19T05:50:45;12.52;;;9.23;;
27213;SDS011;14723;55.814;37.460;2023-05-19T05:53:55;13.95;;;10.05;;
27213;SDS011;14723;55.814;37.460;2023-05-19T05:57:12;13.77;;;9.73;;
27213;SDS011;14723;55.814;37.460;2023-05-19T06:00:18;14.82;;;9.60;;
27213;SDS011;14723;55.814;37.460;2023-05-19T06:06:37;17.42;;;10.93;;
27213;SDS011;14723;55.814;37.460;2023-05-19T06:09:43;15.43;;;9.35;;
27213;SDS011;14723;55.814;37.460;2023-05-19T06:12:52;12.50;;;9.60;;
27213;SDS011;14723;55.814;37.460;2023-05-19T06:19:12;12.55;;;9.93;;
27213;SDS011;14723;55.814;37.460;2023-05-19T06:22:18;14.38;;;9.57;;
27213;SDS011;14723;55.814;37.460;2023-05-19T06:25:24;16.10;;;10.05;;
27213;SDS011;14723;55.814;37.460;2023-05-19T06:28:32;20.33;;;10.10;;
27213;SDS011;14723;55.814;37.460;2023-05-19T06:31:39;13.50;;;9.98;;
27213;SDS011;14723;55.814;37.460;2023-05-19T06:34:47;14.02;;;9.18;;
27213;SDS011;14723;55.814;37.460;2023-05-19T06:37:56;14.40;;;9.40;;
27213;SDS011;14723;55.814;37.460;2023-05-19T06:41:01;13.13;;;9.65;;
27213;SDS011;14723;55.814;37.460;2023-05-19T06:44:09;13.90;;;9.80;;
27213;SDS011;14723;55.814;37.460;2023-05-19T06:47:18;15.30;;;8.95;;
27213;SDS011;14723;55.814;37.460;2023-05-19T06:50:25;13.45;;;9.82;;
27213;SDS011;14723;55.814;37.460;2023-05-19T06:53:32;13.35;;;9.00;;
27213;SDS011;14723;55.814;37.460;2023-05-19T06:56:41;14.02;;;9.40;;
27213;SDS011;14723;55.814;37.460;2023-05-19T06:59:51;14.93;;;9.15;;
27213;SDS011;14723;55.814;37.460;2023-05-19T07:02:57;14.60;;;9.68;;
27213;SDS011;14723;55.814;37.460;2023-05-19T07:06:03;14.25;;;9.63;;
27213;SDS011;14723;55.814;37.460;2023-05-19T07:09:10;13.07;;;9.27;;
27213;SDS011;14723;55.814;37.460;2023-05-19T07:12:16;14.38;;;9.10;;
27213;SDS011;14723;55.814;37.460;2023-05-19T07:15:24;16.42;;;8.65;;
27213;SDS011;14723;55.814;37.460;2023-05-19T07:18:30;12.98;;;8.68;;
27213;SDS011;14723;55.814;37.460;2023-05-19T07:21:36;13.82;;;8.55;;
27213;SDS011;14723;55.814;37.460;2023-05-19T07:24:43;15.23;;;8.93;;
27213;SDS011;14723;55.814;37.460;2023-05-19T07:27:50;13.48;;;8.63;;
27213;SDS011;14723;55.814;37.460;2023-05-19T07:30:58;11.48;;;7.68;;
27213;SDS011;14723;55.814;37.460;2023-05-19T07:34:04;14.43;;;7.93;;
27213;SDS011;14723;55.814;37.460;2023-05-19T07:37:09;12.48;;;7.35;;
27213;SDS011;14723;55.814;37.460;2023-05-19T07:40:15;12.90;;;7.50;;
27213;SDS011;14723;55.814;37.460;2023-05-19T07:43:21;10.18;;;6.32;;
27213;SDS011;14723;55.814;37.460;2023-05-19T07:46:29;11.35;;;6.05;;
27213;SDS011;14723;55.814;37.460;2023-05-19T07:49:35;11.70;;;5.47;;
27213;SDS011;14723;55.814;37.460;2023-05-19T07:52:41;11.27;;;5.60;;
27213;SDS011;14723;55.814;37.460;2023-05-19T07:55:47;8.32;;;5.45;;
27213;SDS011;14723;55.814;37.460;2023-05-19T07:58:52;7.68;;;5.00;;
27213;SDS011;14723;55.814;37.460;2023-05-19T08:02:01;7.75;;;4.57;;
27213;SDS011;14723;55.814;37.460;2023-05-19T08:05:07;8.18;;;4.30;;
27213;SDS011;14723;55.814;37.460;2023-05-19T08:08:12;6.90;;;3.83;;
27213;SDS011;14723;55.814;37.460;2023-05-19T08:11:20;6.45;;;3.47;;
27213;SDS011;14723;55.814;37.460;2023-05-19T08:14:26;9.32;;;3.45;;
27213;SDS011;14723;55.814;37.460;2023-05-19T08:17:35;8.88;;;4.20;;
27213;SDS011;14723;55.814;37.460;2023-05-19T08:20:40;10.27;;;3.45;;
27213;SDS011;14723;55.814;37.460;2023-05-19T08:23:47;10.13;;;3.45;;
27213;SDS011;14723;55.814;37.460;2023-05-19T08:26:53;8.05;;;3.80;;
27213;SDS011;14723;55.814;37.460;2023-05-19T08:29:58;6.47;;;3.30;;
27213;SDS011;14723;55.814;37.460;2023-05-19T08:33:07;6.55;;;3.33;;
27213;SDS011;14723;55.814;37.460;2023-05-19T08:36:13;9.85;;;4.07;;
27213;SDS011;14723;55.814;37.460;2023-05-19T08:39:18;5.53;;;3.33;;
27213;SDS011;14723;55.814;37.460;2023-05-19T08:42:27;7.35;;;3.67;;
27213;SDS011;14723;55.814;37.460;2023-05-19T08:45:34;7.53;;;3.78;;
27213;SDS011;14723;55.814;37.460;2023-05-19T08:48:43;13.05;;;3.78;;
27213;SDS011;14723;55.814;37.460;2023-05-19T08:51:49;7.38;;;3.53;;
27213;SDS011;14723;55.814;37.460;2023-05-19T08:54:59;5.05;;;3.47;;
27213;SDS011;14723;55.814;37.460;2023-05-19T08:58:08;6.28;;;3.47;;
27213;SDS011;14723;55.814;37.460;2023-05-19T09:01:13;5.97;;;3.70;;
27213;SDS011;14723;55.814;37.460;2023-05-19T09:04:22;6.32;;;2.88;;
27213;SDS011;14723;55.814;37.460;2023-05-19T09:07:31;6.10;;;3.28;;
27213;SDS011;14723;55.814;37.460;2023-05-19T09:10:38;6.20;;;2.93;;
27213;SDS011;14723;55.814;37.460;2023-05-19T09:13:44;5.55;;;2.70;;
27213;SDS011;14723;55.814;37.460;2023-05-19T09:16:50;7.20;;;2.80;;
27213;SDS011;14723;55.814;37.460;2023-05-19T09:19:58;5.18;;;2.75;;
27213;SDS011;14723;55.814;37.460;2023-05-19T09:23:06;7.50;;;2.80;;
27213;SDS011;14723;55.814;37.460;2023-05-19T09:26:13;5.50;;;3.03;;
27213;SDS011;14723;55.814;37.460;2023-05-19T09:29:19;4.00;;;2.60;;
27213;SDS011;14723;55.814;37.460;2023-05-19T09:32:24;3.67;;;2.83;;
27213;SDS011;14723;55.814;37.460;2023-05-19T09:35:33;4.15;;;2.20;;
27213;SDS011;14723;55.814;37.460;2023-05-19T09:38:39;5.13;;;2.58;;
27213;SDS011;14723;55.814;37.460;2023-05-19T09:41:45;3.92;;;2.20;;
27213;SDS011;14723;55.814;37.460;2023-05-19T09:44:52;6.40;;;2.70;;
27213;SDS011;14723;55.814;37.460;2023-05-19T09:48:08;7.78;;;2.38;;
27213;SDS011;14723;55.814;37.460;2023-05-19T09:51:16;4.40;;;2.20;;
27213;SDS011;14723;55.814;37.460;2023-05-19T09:54:23;4.70;;;2.15;;
27213;SDS011;14723;55.814;37.460;2023-05-19T09:57:32;6.00;;;2.43;;
27213;SDS011;14723;55.814;37.460;2023-05-19T10:00:38;2.97;;;2.00;;
27213;SDS011;14723;55.814;37.460;2023-05-19T10:03:44;3.60;;;2.15;;
27213;SDS011;14723;55.814;37.460;2023-05-19T10:06:52;4.45;;;2.50;;
27213;SDS011;14723;55.814;37.460;2023-05-19T10:10:01;4.38;;;1.80;;
27213;SDS011;14723;55.814;37.460;2023-05-19T10:13:08;5.32;;;2.22;;
27213;SDS011;14723;55.814;37.460;2023-05-19T10:16:13;5.80;;;1.80;;
27213;SDS011;14723;55.814;37.460;2023-05-19T10:19:20;4.57;;;1.88;;
27213;SDS011;14723;55.814;37.460;2023-05-19T10:22:29;7.03;;;2.35;;
27213;SDS011;14723;55.814;37.460;2023-05-19T10:25:35;4.75;;;2.00;;
27213;SDS011;14723;55.814;37.460;2023-05-19T10:28:41;5.32;;;2.20;;
27213;SDS011;14723;55.814;37.460;2023-05-19T10:31:47;6.68;;;2.03;;
27213;SDS011;14723;55.814;37.460;2023-05-19T10:38:23;7.47;;;2.45;;
27213;SDS011;14723;55.814;37.460;2023-05-19T10:41:33;5.75;;;2.20;;
27213;SDS011;14723;55.814;37.460;2023-05-19T10:44:45;4.32;;;2.10;;
27213;SDS011;14723;55.814;37.460;2023-05-19T10:47:53;5.25;;;1.98;;
27213;SDS011;14723;55.814;37.460;2023-05-19T10:50:59;4.75;;;2.00;;
27213;SDS011;14723;55.814;37.460;2023-05-19T10:54:09;4.03;;;1.80;;
27213;SDS011;14723;55.814;37.460;2023-05-19T10:57:17;3.75;;;1.92;;
27213;SDS011;14723;55.814;37.460;2023-05-19T11:00:27;5.47;;;1.88;;
27213;SDS011;14723;55.814;37.460;2023-05-19T11:03:41;4.70;;;2.05;;
27213;SDS011;14723;55.814;37.460;2023-05-19T11:06:49;3.10;;;2.08;;
27213;SDS011;14723;55.814;37.460;2023-05-19T11:09:57;5.50;;;2.10;;
27213;SDS011;14723;55.814;37.460;2023-05-19T11:13:04;6.22;;;2.50;;
27213;SDS011;14723;55.814;37.460;2023-05-19T11:16:10;2.85;;;2.10;;
27213;SDS011;14723;55.814;37.460;2023-05-19T11:19:18;4.03;;;1.90;;
27213;SDS011;14723;55.814;37.460;2023-05-19T11:22:25;7.57;;;2.72;;
27213;SDS011;14723;55.814;37.460;2023-05-19T11:25:43;3.45;;;1.95;;
27213;SDS011;14723;55.814;37.460;2023-05-19T11:28:49;3.10;;;1.65;;
27213;SDS011;14723;55.814;37.460;2023-05-19T11:31:55;4.28;;;1.70;;
27213;SDS011;14723;55.814;37.460;2023-05-19T11:35:00;1.70;;;1.60;;
27213;SDS011;14723;55.814;37.460;2023-05-19T11:38:07;3.25;;;1.80;;
27213;SDS011;14723;55.814;37.460;2023-05-19T11:41:16;1.70;;;1.50;;
27213;SDS011;14723;55.814;37.460;2023-05-19T11:44:22;7.28;;;1.77;;
27213;SDS011;14723;55.814;37.460;2023-05-19T11:47:29;4.97;;;1.67;;
27213;SDS011;14723;55.814;37.460;2023-05-19T11:50:52;2.30;;;1.60;;
27213;SDS011;14723;55.814;37.460;2023-05-19T11:53:58;2.95;;;1.80;;
27213;SDS011;14723;55.814;37.460;2023-05-19T11:57:06;5.75;;;1.85;;
27213;SDS011;14723;55.814;37.460;2023-05-19T12:00:13;3.63;;;1.70;;
27213;SDS011;14723;55.814;37.460;2023-05-19T12:03:20;3.20;;;1.60;;
27213;SDS011;14723;55.814;37.460;2023-05-19T12:06:30;2.95;;;1.67;;
27213;SDS011;14723;55.814;37.460;2023-05-19T12:09:35;2.90;;;1.58;;
27213;SDS011;14723;55.814;37.460;2023-05-19T12:12:44;4.13;;;1.60;;
27213;SDS011;14723;55.814;37.460;2023-05-19T12:15:51;2.80;;;1.40;;
27213;SDS011;14723;55.814;37.460;2023-05-19T12:18:57;3.83;;;1.40;;
27213;SDS011;14723;55.814;37.460;2023-05-19T12:22:02;3.78;;;1.60;;
27213;SDS011;14723;55.814;37.460;2023-05-19T12:25:08;3.60;;;1.90;;
27213;SDS011;14723;55.814;37.460;2023-05-19T12:28:16;5.82;;;1.98;;
27213;SDS011;14723;55.814;37.460;2023-05-19T12:31:23;3.72;;;1.83;;
27213;SDS011;14723;55.814;37.460;2023-05-19T12:34:29;2.65;;;1.60;;
27213;SDS011;14723;55.814;37.460;2023-05-19T12:37:34;2.38;;;1.40;;
27213;SDS011;14723;55.814;37.460;2023-05-19T12:40:41;7.35;;;1.60;;
27213;SDS011;14723;55.814;37.460;2023-05-19T12:43:50;6.18;;;1.75;;
27213;SDS011;14723;55.814;37.460;2023-05-19T12:46:55;3.92;;;1.80;;
27213;SDS011;14723;55.814;37.460;2023-05-19T12:50:02;4.25;;;1.83;;
27213;SDS011;14723;55.814;37.460;2023-05-19T12:53:09;3.20;;;2.05;;
27213;SDS011;14723;55.814;37.460;2023-05-19T12:56:15;2.80;;;1.50;;
27213;SDS011;14723;55.814;37.460;2023-05-19T12:59:24;7.28;;;1.70;;
27213;SDS011;14723;55.814;37.460;2023-05-19T13:02:53;10.63;;;1.77;;
27213;SDS011;14723;55.814;37.460;2023-05-19T13:05:59;3.33;;;1.40;;
27213;SDS011;14723;55.814;37.460;2023-05-19T13:09:04;3.45;;;1.40;;
27213;SDS011;14723;55.814;37.460;2023-05-19T13:12:11;2.92;;;1.33;;
27213;SDS011;14723;55.814;37.460;2023-05-19T13:15:19;5.85;;;2.05;;
27213;SDS011;14723;55.814;37.460;2023-05-19T13:18:24;2.45;;;1.40;;
27213;SDS011;14723;55.814;37.460;2023-05-19T13:21:33;2.17;;;1.48;;
27213;SDS011;14723;55.814;37.460;2023-05-19T13:24:38;4.38;;;1.88;;
27213;SDS011;14723;55.814;37.460;2023-05-19T13:27:43;2.45;;;1.65;;
27213;SDS011;14723;55.814;37.460;2023-05-19T13:30:52;2.50;;;1.77;;
27213;SDS011;14723;55.814;37.460;2023-05-19T13:33:58;4.18;;;1.65;;
27213;SDS011;14723;55.814;37.460;2023-05-19T13:37:03;3.17;;;1.88;;
27213;SDS011;14723;55.814;37.460;2023-05-19T13:40:11;4.90;;;1.92;;
27213;SDS011;14723;55.814;37.460;2023-05-19T13:43:17;3.85;;;1.48;;
27213;SDS011;14723;55.814;37.460;2023-05-19T13:46:25;3.33;;;1.70;;
27213;SDS011;14723;55.814;37.460;2023-05-19T13:49:45;2.78;;;1.83;;
27213;SDS011;14723;55.814;37.460;2023-05-19T13:52:51;11.38;;;2.00;;
27213;SDS011;14723;55.814;37.460;2023-05-19T13:55:57;4.00;;;2.20;;
27213;SDS011;14723;55.814;37.460;2023-05-19T13:59:04;3.03;;;2.03;;
27213;SDS011;14723;55.814;37.460;2023-05-19T14:02:12;5.97;;;1.73;;
27213;SDS011;14723;55.814;37.460;2023-05-19T14:05:18;4.82;;;1.52;;
27213;SDS011;14723;55.814;37.460;2023-05-19T14:08:24;2.40;;;1.63;;
27213;SDS011;14723;55.814;37.460;2023-05-19T14:11:29;2.58;;;1.45;;
27213;SDS011;14723;55.814;37.460;2023-05-19T14:14:35;4.10;;;1.50;;
27213;SDS011;14723;55.814;37.460;2023-05-19T14:17:43;4.78;;;1.80;;
27213;SDS011;14723;55.814;37.460;2023-05-19T14:20:50;5.35;;;1.80;;
27213;SDS011;14723;55.814;37.460;2023-05-19T14:23:55;4.35;;;1.50;;
27213;SDS011;14723;55.814;37.460;2023-05-19T14:27:01;3.92;;;1.33;;
27213;SDS011;14723;55.814;37.460;2023-05-19T14:30:07;3.05;;;1.42;;
27213;SDS011;14723;55.814;37.460;2023-05-19T14:33:15;6.55;;;1.52;;
27213;SDS011;14723;55.814;37.460;2023-05-19T14:36:20;3.13;;;1.63;;
27213;SDS011;14723;55.814;37.460;2023-05-19T14:39:26;2.22;;;1.50;;
27213;SDS011;14723;55.814;37.460;2023-05-19T14:42:31;5.10;;;1.40;;
27213;SDS011;14723;55.814;37.460;2023-05-19T14:45:37;3.92;;;1.73;;
27213;SDS011;14723;55.814;37.460;2023-05-19T14:48:45;2.50;;;1.20;;
27213;SDS011;14723;55.814;37.460;2023-05-19T14:54:56;5.32;;;1.52;;
27213;SDS011;14723;55.814;37.460;2023-05-19T14:58:04;5.85;;;1.50;;
27213;SDS011;14723;55.814;37.460;2023-05-19T15:01:29;3.00;;;1.40;;
27213;SDS011;14723;55.814;37.460;2023-05-19T15:04:37;3.92;;;1.63;;
27213;SDS011;14723;55.814;37.460;2023-05-19T15:10:47;5.15;;;1.30;;
27213;SDS011;14723;55.814;37.460;2023-05-19T15:13:53;3.92;;;1.30;;
27213;SDS011;14723;55.814;37.460;2023-05-19T15:16:58;3.50;;;1.45;;
27213;SDS011;14723;55.814;37.460;2023-05-19T15:20:07;4.57;;;1.50;;
27213;SDS011;14723;55.814;37.460;2023-05-19T15:23:12;4.43;;;2.08;;
27213;SDS011;14723;55.814;37.460;2023-05-19T15:26:17;5.40;;;1.60;;
27213;SDS011;14723;55.814;37.460;2023-05-19T15:29:23;4.28;;;1.35;;
27213;SDS011;14723;55.814;37.460;2023-05-19T15:32:29;3.92;;;1.67;;
27213;SDS011;14723;55.814;37.460;2023-05-19T15:35:38;12.95;;;1.65;;
27213;SDS011;14723;55.814;37.460;2023-05-19T15:41:48;4.95;;;1.52;;
27213;SDS011;14723;55.814;37.460;2023-05-19T15:44:54;7.53;;;1.38;;
27213;SDS011;14723;55.814;37.460;2023-05-19T15:48:00;5.32;;;1.27;;
27213;SDS011;14723;55.814;37.460;2023-05-19T15:51:08;5.82;;;1.45;;
27213;SDS011;14723;55.814;37.460;2023-05-19T15:54:14;3.08;;;1.13;;
27213;SDS011;14723;55.814;37.460;2023-05-19T15:57:19;4.15;;;1.20;;
27213;SDS011;14723;55.814;37.460;2023-05-19T16:00:28;4.55;;;1.30;;
27213;SDS011;14723;55.814;37.460;2023-05-19T16:03:33;3.08;;;1.52;;
27213;SDS011;14723;55.814;37.460;2023-05-19T16:06:45;6.85;;;1.40;;
27213;SDS011;14723;55.814;37.460;2023-05-19T16:09:50;4.05;;;1.33;;
27213;SDS011;14723;55.814;37.460;2023-05-19T16:12:56;4.88;;;1.38;;
27213;SDS011;14723;55.814;37.460;2023-05-19T16:16:01;2.95;;;1.20;;
27213;SDS011;14723;55.814;37.460;2023-05-19T16:19:07;6.38;;;1.52;;
27213;SDS011;14723;55.814;37.460;2023-05-19T16:22:15;3.35;;;1.23;;
27213;SDS011;14723;55.814;37.460;2023-05-19T16:25:23;3.60;;;1.40;;
27213;SDS011;14723;55.814;37.460;2023-05-19T16:28:28;4.53;;;1.30;;
27213;SDS011;14723;55.814;37.460;2023-05-19T16:31:34;6.90;;;1.70;;
27213;SDS011;14723;55.814;37.460;2023-05-19T16:34:39;2.63;;;1.55;;
27213;SDS011;14723;55.814;37.460;2023-05-19T16:37:47;3.28;;;1.50;;
27213;SDS011;14723;55.814;37.460;2023-05-19T16:40:53;3.65;;;1.50;;
27213;SDS011;14723;55.814;37.460;2023-05-19T16:43:58;3.08;;;2.03;;
27213;SDS011;14723;55.814;37.460;2023-05-19T16:47:04;4.47;;;1.30;;
27213;SDS011;14723;55.814;37.460;2023-05-19T16:50:10;3.05;;;1.10;;
27213;SDS011;14723;55.814;37.460;2023-05-19T16:53:18;7.30;;;1.52;;
27213;SDS011;14723;55.814;37.460;2023-05-19T16:56:24;5.80;;;1.63;;
27213;SDS011;14723;55.814;37.460;2023-05-19T16:59:29;7.43;;;1.73;;
27213;SDS011;14723;55.814;37.460;2023-05-19T17:02:35;6.22;;;1.45;;
27213;SDS011;14723;55.814;37.460;2023-05-19T17:05:41;5.93;;;1.42;;
27213;SDS011;14723;55.814;37.460;2023-05-19T17:08:49;4.30;;;1.30;;
27213;SDS011;14723;55.814;37.460;2023-05-19T17:11:56;6.50;;;1.73;;
27213;SDS011;14723;55.814;37.460;2023-05-19T17:15:02;6.80;;;1.77;;
27213;SDS011;14723;55.814;37.460;2023-05-19T17:18:07;1.98;;;1.10;;
27213;SDS011;14723;55.814;37.460;2023-05-19T17:21:13;2.75;;;1.30;;
27213;SDS011;14723;55.814;37.460;2023-05-19T17:24:21;9.00;;;1.70;;
27213;SDS011;14723;55.814;37.460;2023-05-19T17:27:27;6.68;;;1.60;;
27213;SDS011;14723;55.814;37.460;2023-05-19T17:30:33;2.92;;;1.48;;
27213;SDS011;14723;55.814;37.460;2023-05-19T17:33:39;5.20;;;1.35;;
27213;SDS011;14723;55.814;37.460;2023-05-19T17:36:44;6.55;;;2.00;;
27213;SDS011;14723;55.814;37.460;2023-05-19T17:39:53;8.63;;;1.60;;
27213;SDS011;14723;55.814;37.460;2023-05-19T17:42:59;7.32;;;1.40;;
27213;SDS011;14723;55.814;37.460;2023-05-19T17:46:04;6.25;;;1.60;;
27213;SDS011;14723;55.814;37.460;2023-05-19T17:49:10;6.57;;;2.03;;
27213;SDS011;14723;55.814;37.460;2023-05-19T17:52:16;4.38;;;1.60;;
27213;SDS011;14723;55.814;37.460;2023-05-19T17:55:26;4.45;;;1.60;;
27213;SDS011;14723;55.814;37.460;2023-05-19T17:58:32;3.17;;;1.30;;
27213;SDS011;14723;55.814;37.460;2023-05-19T18:01:38;3.92;;;1.10;;
27213;SDS011;14723;55.814;37.460;2023-05-19T18:04:44;4.13;;;1.90;;
27213;SDS011;14723;55.814;37.460;2023-05-19T18:07:50;7.80;;;2.58;;
27213;SDS011;14723;55.814;37.460;2023-05-19T18:11:00;4.72;;;1.00;;
27213;SDS011;14723;55.814;37.460;2023-05-19T18:14:06;4.30;;;1.67;;
27213;SDS011;14723;55.814;37.460;2023-05-19T18:17:11;3.67;;;1.23;;
27213;SDS011;14723;55.814;37.460;2023-05-19T18:20:17;5.32;;;1.45;;
27213;SDS011;14723;55.814;37.460;2023-05-19T18:23:22;5.93;;;1.20;;
27213;SDS011;14723;55.814;37.460;2023-05-19T18:26:30;7.57;;;1.30;;
27213;SDS011;14723;55.814;37.460;2023-05-19T18:29:38;4.88;;;1.60;;
27213;SDS011;14723;55.814;37.460;2023-05-19T18:32:44;5.97;;;1.58;;
27213;SDS011;14723;55.814;37.460;2023-05-19T18:35:49;7.50;;;1.80;;
27213;SDS011;14723;55.814;37.460;2023-05-19T18:38:56;7.30;;;1.58;;
27213;SDS011;14723;55.814;37.460;2023-05-19T18:42:05;5.68;;;2.00;;
27213;SDS011;14723;55.814;37.460;2023-05-19T18:45:11;6.25;;;1.70;;
27213;SDS011;14723;55.814;37.460;2023-05-19T18:48:17;3.05;;;1.80;;
27213;SDS011;14723;55.814;37.460;2023-05-19T18:51:23;2.55;;;1.63;;
27213;SDS011;14723;55.814;37.460;2023-05-19T18:54:29;5.43;;;1.23;;
27213;SDS011;14723;55.814;37.460;2023-05-19T18:57:37;5.07;;;1.40;;
27213;SDS011;14723;55.814;37.460;2023-05-19T19:00:43;3.75;;;1.67;;